createdAt,value
2018-06-22T00:02:11.110Z,9.50
2018-06-22T00:04:39.487Z,9.40
2018-06-22T00:07:07.893Z,9.40
2018-06-22T00:09:36.268Z,9.30
2018-06-22T00:12:05.102Z,9.30
2018-06-22T00:14:33.542Z,9.20
2018-06-22T00:17:01.967Z,9.10
2018-06-22T00:19:30.339Z,9.00
2018-06-22T00:21:58.726Z,9.00
2018-06-22T00:24:27.157Z,9.10
2018-06-22T00:26:55.548Z,8.90
2018-06-22T00:29:23.971Z,8.90
2018-06-22T00:31:52.401Z,8.90
2018-06-22T00:34:20.811Z,8.90
2018-06-22T00:36:49.209Z,8.80
2018-06-22T00:39:17.614Z,8.80
2018-06-22T00:41:46.005Z,8.80
2018-06-22T00:44:14.399Z,8.80
2018-06-22T00:46:42.828Z,8.70
2018-06-22T00:49:11.353Z,8.70
2018-06-22T00:51:39.777Z,8.70
2018-06-22T00:54:14.589Z,8.60
2018-06-22T00:56:42.988Z,8.60
2018-06-22T00:59:12.023Z,8.60
2018-06-22T01:01:40.627Z,8.60
2018-06-22T01:04:09.417Z,8.50
2018-06-22T01:06:37.839Z,8.60
2018-06-22T01:09:08.252Z,8.50
2018-06-22T01:11:36.649Z,8.60
2018-06-22T01:14:05.332Z,8.60
2018-06-22T01:16:33.781Z,8.70
2018-06-22T01:19:02.224Z,8.70
2018-06-22T01:21:30.783Z,8.80
2018-06-22T01:23:59.333Z,8.80
2018-06-22T01:26:27.761Z,8.90
2018-06-22T01:29:01.550Z,8.90
2018-06-22T01:31:30.045Z,9.00
2018-06-22T01:33:58.543Z,9.10
2018-06-22T01:36:27.159Z,9.20
2018-06-22T01:38:55.633Z,9.10
2018-06-22T01:41:24.580Z,9.20
2018-06-22T01:43:53.019Z,9.20
2018-06-22T01:46:21.433Z,9.20
2018-06-22T01:48:50.232Z,9.30
2018-06-22T01:51:18.664Z,9.30
2018-06-22T01:53:47.127Z,9.30
2018-06-22T01:56:15.644Z,9.30
2018-06-22T01:58:44.055Z,9.40
2018-06-22T02:01:12.475Z,9.40
2018-06-22T02:03:40.910Z,9.50
2018-06-22T02:06:09.344Z,9.50
2018-06-22T02:08:37.900Z,9.60
2018-06-22T02:11:06.378Z,9.50
2018-06-22T02:13:34.833Z,9.50
2018-06-22T02:16:03.445Z,9.50
2018-06-22T02:18:31.862Z,9.60
2018-06-22T02:21:00.538Z,9.70
2018-06-22T02:23:28.962Z,9.60
2018-06-22T02:25:57.380Z,9.50
2018-06-22T02:28:26.036Z,9.50
2018-06-22T02:30:54.460Z,9.50
2018-06-22T02:33:22.912Z,9.50
2018-06-22T02:35:51.402Z,9.50
2018-06-22T02:38:20.015Z,9.50
2018-06-22T02:40:48.464Z,9.60
2018-06-22T02:43:16.902Z,9.50
2018-06-22T02:45:45.333Z,9.50
2018-06-22T02:48:13.760Z,9.40
2018-06-22T02:50:42.218Z,9.40
2018-06-22T02:53:10.778Z,9.50
2018-06-22T02:55:39.428Z,9.40
2018-06-22T02:58:07.837Z,9.30
2018-06-22T03:00:36.256Z,9.30
2018-06-22T03:03:04.676Z,9.30
2018-06-22T03:05:39.600Z,9.30
2018-06-22T03:08:08.257Z,9.20
2018-06-22T03:10:36.671Z,9.20
2018-06-22T03:13:05.465Z,9.20
2018-06-22T03:15:33.915Z,9.10
2018-06-22T03:18:02.351Z,9.00
2018-06-22T03:20:30.799Z,9.00
2018-06-22T03:22:59.280Z,9.10
2018-06-22T03:25:27.827Z,9.00
2018-06-22T03:27:56.268Z,9.00
2018-06-22T03:30:24.784Z,8.90
2018-06-22T03:32:53.234Z,8.90
2018-06-22T03:35:21.652Z,9.00
2018-06-22T03:37:50.087Z,8.90
2018-06-22T03:40:18.532Z,9.00
2018-06-22T03:42:46.957Z,8.80
2018-06-22T03:45:15.379Z,8.90
2018-06-22T03:47:43.805Z,8.90
2018-06-22T03:50:12.215Z,8.90
2018-06-22T03:52:40.675Z,8.90
2018-06-22T03:55:09.100Z,8.90
2018-06-22T03:57:37.549Z,9.00
2018-06-22T04:00:05.964Z,9.00
2018-06-22T04:02:34.414Z,9.10
2018-06-22T04:05:02.852Z,9.10
2018-06-22T04:07:31.343Z,9.20
2018-06-22T04:09:59.904Z,9.30
2018-06-22T04:12:28.302Z,9.40
2018-06-22T04:14:56.843Z,9.40
2018-06-22T04:17:25.553Z,9.40
2018-06-22T04:19:53.982Z,9.60
2018-06-22T04:22:22.418Z,9.50
2018-06-22T04:24:50.911Z,9.50
2018-06-22T04:27:19.385Z,9.50
2018-06-22T04:29:47.833Z,9.50
2018-06-22T04:32:16.230Z,9.70
2018-06-22T04:34:44.657Z,9.80
2018-06-22T04:37:13.085Z,9.80
2018-06-22T04:39:41.595Z,9.80
2018-06-22T04:42:10.149Z,10.00
2018-06-22T04:44:38.599Z,10.10
2018-06-22T04:47:07.086Z,10.20
2018-06-22T04:49:35.519Z,10.20
2018-06-22T04:52:03.995Z,10.10
2018-06-22T04:54:32.461Z,10.10
2018-06-22T04:57:01.230Z,10.20
2018-06-22T04:59:29.683Z,10.30
2018-06-22T05:01:58.186Z,10.50
2018-06-22T05:04:26.625Z,10.70
2018-06-22T05:06:55.039Z,10.80
2018-06-22T05:09:23.499Z,10.80
2018-06-22T05:11:52.155Z,10.90
2018-06-22T05:14:20.583Z,10.90
2018-06-22T05:16:49.062Z,10.90
2018-06-22T05:19:17.680Z,11.10
2018-06-22T05:21:46.127Z,11.20
2018-06-22T05:24:14.925Z,11.30
2018-06-22T05:26:43.482Z,11.10
2018-06-22T05:29:11.895Z,11.20
2018-06-22T05:31:40.406Z,10.90
2018-06-22T05:34:08.869Z,11.10
2018-06-22T05:36:37.362Z,11.20
2018-06-22T05:39:08.321Z,11.00
2018-06-22T05:41:36.939Z,10.90
2018-06-22T05:44:05.474Z,10.80
2018-06-22T05:46:34.015Z,10.80
2018-06-22T05:49:02.450Z,11.00
2018-06-22T05:51:30.979Z,11.30
2018-06-22T05:53:59.410Z,11.10
2018-06-22T05:56:27.895Z,11.00
2018-06-22T05:58:56.516Z,10.90
2018-06-22T06:01:24.957Z,11.00
2018-06-22T06:03:53.566Z,10.90
2018-06-22T06:06:21.973Z,10.80
2018-06-22T06:08:50.483Z,10.90
2018-06-22T06:11:18.901Z,11.00
2018-06-22T06:13:47.355Z,11.30
2018-06-22T06:16:15.864Z,11.40
2018-06-22T06:18:44.333Z,11.20
2018-06-22T06:21:12.744Z,11.10
2018-06-22T06:23:41.180Z,11.20
2018-06-22T06:26:09.605Z,11.20
2018-06-22T06:28:38.024Z,11.30
2018-06-22T06:31:06.445Z,11.60
2018-06-22T06:33:34.889Z,11.60
2018-06-22T06:36:03.322Z,11.60
2018-06-22T06:38:31.802Z,11.80
2018-06-22T06:41:05.907Z,11.90
2018-06-22T06:43:34.558Z,12.00
2018-06-22T06:46:03.321Z,11.80
2018-06-22T06:48:31.771Z,11.80
2018-06-22T06:51:00.187Z,11.70
2018-06-22T06:53:28.666Z,11.70
2018-06-22T06:56:03.162Z,11.80
2018-06-22T06:58:31.701Z,11.70
2018-06-22T07:01:00.128Z,11.80
2018-06-22T07:03:28.556Z,11.80
2018-06-22T07:05:56.990Z,11.70
2018-06-22T07:08:25.524Z,11.70
2018-06-22T07:10:54.070Z,11.90
2018-06-22T07:13:22.496Z,12.00
2018-06-22T07:15:51.000Z,12.00
2018-06-22T07:18:19.419Z,12.00
2018-06-22T07:20:47.914Z,12.10
2018-06-22T07:23:16.334Z,12.30
2018-06-22T07:25:44.774Z,12.50
2018-06-22T07:28:13.218Z,12.60
2018-06-22T07:30:41.659Z,12.50
2018-06-22T07:33:10.284Z,12.60
2018-06-22T07:35:38.693Z,12.40
2018-06-22T07:38:07.121Z,12.20
2018-06-22T07:40:35.616Z,12.20
2018-06-22T07:43:04.116Z,12.30
2018-06-22T07:45:32.560Z,12.30
2018-06-22T07:48:00.981Z,12.40
2018-06-22T07:50:29.415Z,12.30
2018-06-22T07:52:57.850Z,12.20
2018-06-22T07:55:26.345Z,12.60
2018-06-22T07:57:54.850Z,13.00
2018-06-22T08:00:23.459Z,13.50
2018-06-22T08:02:51.948Z,13.70
2018-06-22T08:05:20.358Z,14.20
2018-06-22T08:07:48.833Z,14.20
2018-06-22T08:10:17.271Z,14.20
2018-06-22T08:12:45.792Z,14.10
2018-06-22T08:15:14.228Z,14.20
2018-06-22T08:17:42.789Z,14.10
2018-06-22T08:20:11.509Z,13.50
2018-06-22T08:22:40.130Z,13.30
2018-06-22T08:25:08.600Z,13.40
2018-06-22T08:27:37.570Z,13.50
2018-06-22T08:30:06.445Z,13.20
2018-06-22T08:32:35.599Z,13.00
2018-06-22T08:35:04.059Z,13.00
2018-06-22T08:37:32.543Z,12.80
2018-06-22T08:40:00.993Z,13.00
2018-06-22T08:42:29.620Z,13.10
2018-06-22T08:44:58.112Z,12.90
2018-06-22T08:47:27.124Z,12.90
2018-06-22T08:49:55.556Z,12.70
2018-06-22T08:52:23.989Z,12.70
2018-06-22T08:54:52.526Z,12.70
2018-06-22T08:57:21.048Z,12.80
2018-06-22T08:59:49.533Z,12.70
2018-06-22T09:02:17.957Z,12.70
2018-06-22T09:04:46.417Z,12.70
2018-06-22T09:07:14.917Z,12.70
2018-06-22T09:09:43.318Z,12.90
2018-06-22T09:12:11.754Z,12.90
2018-06-22T09:14:40.279Z,12.90
2018-06-22T09:17:08.729Z,13.00
2018-06-22T09:19:37.224Z,13.10
2018-06-22T09:22:05.885Z,13.00
2018-06-22T09:24:34.333Z,12.90
2018-06-22T09:27:02.747Z,13.00
2018-06-22T09:29:31.247Z,13.20
2018-06-22T09:31:59.676Z,13.30
2018-06-22T09:34:28.111Z,13.30
2018-06-22T09:36:56.650Z,13.20
2018-06-22T09:39:25.064Z,13.20
2018-06-22T09:41:53.510Z,13.10
2018-06-22T09:44:32.536Z,13.20
2018-06-22T09:47:00.990Z,13.20
2018-06-22T09:49:29.400Z,13.20
2018-06-22T09:51:58.301Z,13.30
2018-06-22T09:54:27.095Z,13.10
2018-06-22T09:56:55.579Z,13.10
2018-06-22T09:59:24.485Z,13.30
2018-06-22T10:01:53.885Z,13.40
2018-06-22T10:04:23.044Z,13.50
2018-06-22T10:06:51.960Z,13.60
2018-06-22T10:09:20.403Z,14.00
2018-06-22T10:11:48.943Z,14.20
2018-06-22T10:14:17.483Z,14.00
2018-06-22T10:16:45.997Z,14.40
2018-06-22T10:19:14.532Z,14.60
2018-06-22T10:21:42.997Z,14.30
2018-06-22T10:24:11.671Z,14.30
2018-06-22T10:26:40.141Z,14.50
2018-06-22T10:29:08.661Z,14.30
2018-06-22T10:31:37.095Z,14.40
2018-06-22T10:34:05.595Z,14.40
2018-06-22T10:36:34.106Z,14.00
2018-06-22T10:39:03.268Z,13.80
2018-06-22T10:41:31.914Z,13.70
2018-06-22T10:44:00.468Z,13.60
2018-06-22T10:46:28.919Z,13.50
2018-06-22T10:48:57.473Z,13.60
2018-06-22T10:51:25.929Z,14.10
2018-06-22T10:53:54.551Z,14.70
2018-06-22T10:56:23.381Z,14.50
2018-06-22T10:58:51.856Z,14.60
2018-06-22T11:01:20.639Z,15.10
2018-06-22T11:03:49.123Z,15.10
2018-06-22T11:06:17.702Z,14.90
2018-06-22T11:08:46.262Z,14.90
2018-06-22T11:11:14.676Z,14.80
2018-06-22T11:13:43.128Z,14.50
2018-06-22T11:16:11.789Z,14.70
2018-06-22T11:18:40.342Z,14.80
2018-06-22T11:21:08.958Z,14.70
2018-06-22T11:23:37.751Z,14.90
2018-06-22T11:26:07.028Z,14.90
2018-06-22T11:28:35.700Z,14.70
2018-06-22T11:31:04.550Z,14.50
2018-06-22T11:33:33.051Z,14.60
2018-06-22T11:36:02.155Z,14.60
2018-06-22T11:38:30.640Z,14.80
2018-06-22T11:40:59.115Z,14.60
2018-06-22T11:43:27.568Z,13.90
2018-06-22T11:45:56.044Z,13.90
2018-06-22T11:48:24.463Z,14.10
2018-06-22T11:50:53.319Z,14.00
2018-06-22T11:53:21.828Z,14.10
2018-06-22T11:55:50.628Z,14.10
2018-06-22T11:58:19.072Z,14.10
2018-06-22T12:00:47.507Z,14.20
2018-06-22T12:03:16.007Z,14.00
2018-06-22T12:05:44.556Z,13.90
2018-06-22T12:08:13.067Z,14.20
2018-06-22T12:10:41.560Z,14.20
2018-06-22T12:13:10.011Z,14.40
2018-06-22T12:18:06.599Z,14.00
2018-06-22T12:20:35.058Z,13.90
2018-06-22T12:23:03.868Z,14.10
2018-06-22T12:25:32.347Z,14.20
2018-06-22T12:28:00.828Z,14.20
2018-06-22T12:30:29.266Z,14.00
2018-06-22T12:32:57.719Z,14.10
2018-06-22T12:35:26.380Z,14.50
2018-06-22T12:37:54.820Z,14.50
2018-06-22T12:40:23.274Z,14.50
2018-06-22T12:42:51.814Z,14.40
2018-06-22T12:45:20.259Z,14.30
2018-06-22T12:47:48.724Z,14.30
2018-06-22T12:50:17.299Z,14.40
2018-06-22T12:52:45.822Z,14.10
2018-06-22T12:55:14.629Z,14.20
2018-06-22T12:57:43.277Z,14.10
2018-06-22T13:00:12.262Z,14.30
2018-06-22T13:02:40.836Z,14.20
2018-06-22T13:05:09.311Z,14.70
2018-06-22T13:07:37.731Z,14.70
2018-06-22T13:10:06.470Z,14.70
2018-06-22T13:12:34.931Z,14.80
2018-06-22T13:15:04.141Z,14.60
2018-06-22T13:17:32.730Z,14.60
2018-06-22T13:20:01.293Z,14.60
2018-06-22T13:22:29.749Z,14.60
2018-06-22T13:24:58.199Z,14.70
2018-06-22T13:27:26.668Z,14.80
2018-06-22T13:29:55.158Z,14.90
2018-06-22T13:32:23.629Z,15.30
2018-06-22T13:34:52.438Z,15.70
2018-06-22T13:37:20.918Z,15.50
2018-06-22T13:39:49.532Z,15.70
2018-06-22T13:42:17.981Z,15.50
2018-06-22T13:44:46.450Z,15.50
2018-06-22T13:47:14.922Z,15.40
2018-06-22T13:49:43.371Z,15.10
2018-06-22T13:52:11.794Z,15.00
2018-06-22T13:54:40.260Z,14.70
2018-06-22T13:57:08.894Z,14.80
2018-06-22T13:59:37.394Z,14.80
2018-06-22T14:02:05.920Z,15.00
2018-06-22T14:04:39.701Z,15.00
2018-06-22T14:09:36.554Z,14.90
2018-06-22T14:12:05.044Z,14.80
2018-06-22T14:14:33.502Z,14.80
2018-06-22T14:17:02.326Z,14.80
2018-06-22T14:19:30.904Z,14.30
2018-06-22T14:21:59.324Z,14.50
2018-06-22T14:24:27.772Z,14.90
2018-06-22T14:26:56.191Z,14.90
2018-06-22T14:29:24.661Z,15.00
2018-06-22T14:31:53.496Z,14.90
2018-06-22T14:34:22.170Z,14.90
2018-06-22T14:36:50.580Z,15.00
2018-06-22T14:39:19.030Z,14.70
2018-06-22T14:41:47.474Z,14.80
2018-06-22T14:44:15.959Z,15.30
2018-06-22T14:46:44.439Z,15.40
2018-06-22T14:49:12.898Z,15.60
2018-06-22T14:51:41.332Z,15.60
2018-06-22T14:54:14.988Z,15.70
2018-06-22T14:56:48.726Z,15.00
2018-06-22T14:59:22.409Z,14.90
2018-06-22T15:01:56.200Z,14.90
2018-06-22T15:07:03.750Z,15.00
2018-06-22T15:09:32.361Z,14.90
2018-06-22T15:12:00.930Z,15.20
2018-06-22T15:14:29.350Z,15.30
2018-06-22T15:16:57.850Z,15.30
2018-06-22T15:19:26.475Z,15.60
2018-06-22T15:21:55.344Z,15.80
2018-06-22T15:24:23.932Z,15.90
2018-06-22T15:26:52.394Z,15.40
2018-06-22T15:29:20.817Z,15.50
2018-06-22T15:31:50.877Z,15.50
2018-06-22T15:34:24.828Z,15.10
2018-06-22T15:36:58.499Z,15.00
2018-06-22T15:39:32.210Z,14.90
2018-06-22T15:44:11.262Z,14.80
2018-06-22T15:46:45.602Z,15.10
2018-06-22T15:49:19.293Z,15.30
2018-06-22T15:51:53.048Z,15.60
2018-06-22T15:54:26.897Z,15.50
2018-06-22T15:56:55.424Z,15.40
2018-06-22T15:59:23.978Z,15.40
2018-06-22T16:01:52.578Z,15.10
2018-06-22T16:04:21.387Z,15.10
2018-06-22T16:06:49.958Z,15.10
2018-06-22T16:09:18.557Z,15.20
2018-06-22T16:11:47.024Z,15.40
2018-06-22T16:14:20.924Z,15.30
2018-06-22T16:16:55.039Z,15.10
2018-06-22T16:19:28.907Z,15.30
2018-06-22T16:22:02.826Z,15.80
2018-06-22T16:24:36.636Z,15.90
2018-06-22T16:27:08.978Z,16.00
2018-06-22T16:29:37.586Z,15.40
2018-06-22T16:32:06.051Z,15.30
2018-06-22T16:34:34.530Z,15.20
2018-06-22T16:37:03.012Z,15.30
2018-06-22T16:39:31.435Z,15.30
2018-06-22T16:42:00.006Z,15.30
2018-06-22T16:44:28.674Z,14.90
2018-06-22T16:46:57.109Z,14.60
2018-06-22T16:49:25.620Z,14.60
2018-06-22T16:51:54.119Z,14.50
2018-06-22T16:54:22.570Z,14.60
2018-06-22T16:56:51.140Z,14.60
2018-06-22T17:01:48.079Z,14.60
2018-06-22T17:04:16.679Z,14.60
2018-06-22T17:06:50.415Z,14.60
2018-06-22T17:09:24.384Z,14.50
2018-06-22T17:11:58.111Z,14.60
2018-06-22T17:14:31.871Z,14.50
2018-06-22T17:17:06.876Z,14.50
2018-06-22T17:19:35.406Z,14.50
2018-06-22T17:22:03.841Z,14.30
2018-06-22T17:24:32.335Z,14.30
2018-06-22T17:27:00.846Z,14.40
2018-06-22T17:29:29.550Z,14.40
2018-06-22T17:31:57.996Z,14.60
2018-06-22T17:34:26.451Z,14.60
2018-06-22T17:36:54.898Z,14.50
2018-06-22T17:39:23.392Z,14.60
2018-06-22T17:41:52.024Z,14.50
2018-06-22T17:44:20.926Z,14.40
2018-06-22T17:46:49.444Z,14.20
2018-06-22T17:49:17.988Z,14.00
2018-06-22T17:51:47.888Z,14.10
2018-06-22T17:54:16.865Z,14.00
2018-06-22T17:56:45.484Z,14.00
2018-06-22T17:59:19.235Z,14.00
2018-06-22T18:01:53.878Z,14.10
2018-06-22T18:04:27.576Z,14.20
2018-06-22T18:07:02.038Z,14.20
2018-06-22T18:09:35.862Z,14.20
2018-06-22T18:13:10.732Z,14.10
2018-06-22T18:15:39.244Z,14.00
2018-06-22T18:18:07.706Z,14.10
2018-06-22T18:20:36.524Z,14.10
2018-06-22T18:23:05.117Z,14.10
2018-06-22T18:25:33.727Z,14.10
2018-06-22T18:28:02.203Z,14.00
2018-06-22T18:30:31.091Z,13.90
2018-06-22T18:32:59.583Z,13.80
2018-06-22T18:35:28.092Z,13.70
2018-06-22T18:37:56.541Z,13.50
2018-06-22T18:40:25.132Z,13.40
2018-06-22T18:42:53.936Z,13.40
2018-06-22T18:45:22.447Z,13.30
2018-06-22T18:47:50.948Z,13.30
2018-06-22T18:50:19.531Z,13.30
2018-06-22T18:52:53.390Z,13.30
2018-06-22T18:55:27.114Z,13.30
2018-06-22T18:58:01.037Z,13.30
2018-06-22T19:00:34.754Z,13.40
2018-06-22T19:03:08.663Z,13.30
2018-06-22T19:05:37.484Z,13.40
2018-06-22T19:08:05.955Z,13.40
2018-06-22T19:10:34.384Z,13.40
2018-06-22T19:13:03.892Z,13.30
2018-06-22T19:15:32.333Z,13.20
2018-06-22T19:18:01.525Z,13.10
2018-06-22T19:20:30.027Z,13.10
2018-06-22T19:22:58.856Z,13.20
2018-06-22T19:25:27.307Z,13.20
2018-06-22T19:27:55.843Z,13.20
2018-06-22T19:30:24.515Z,13.20
2018-06-22T19:32:52.956Z,13.20
2018-06-22T19:35:21.430Z,13.10
2018-06-22T19:37:49.955Z,13.10
2018-06-22T19:40:18.405Z,13.10
2018-06-22T19:42:47.244Z,13.10
2018-06-22T19:45:21.296Z,13.00
2018-06-22T19:47:55.063Z,12.80
2018-06-22T19:50:29.051Z,12.70
2018-06-22T19:53:02.936Z,12.60
2018-06-22T19:55:31.340Z,12.60
2018-06-22T19:57:59.755Z,12.60
2018-06-22T20:00:28.346Z,12.60
2018-06-22T20:02:56.924Z,12.60
2018-06-22T20:05:27.060Z,12.50
2018-06-22T20:07:55.569Z,12.40
2018-06-22T20:10:24.018Z,12.40
2018-06-22T20:12:52.808Z,12.30
2018-06-22T20:15:25.234Z,12.30
2018-06-22T20:17:54.841Z,12.30
2018-06-22T20:20:23.340Z,12.20
2018-06-22T20:22:52.243Z,12.20
2018-06-22T20:25:25.981Z,12.30
2018-06-22T20:27:55.028Z,12.30
2018-06-22T20:30:23.597Z,12.20
2018-06-22T20:32:52.067Z,12.10
2018-06-22T20:35:26.399Z,12.10
2018-06-22T20:38:00.144Z,12.10
2018-06-22T20:40:33.832Z,12.10
2018-06-22T20:45:08.539Z,12.10
2018-06-22T20:47:42.399Z,12.00
2018-06-22T20:50:16.075Z,11.80
2018-06-22T20:52:44.554Z,11.80
2018-06-22T20:55:14.237Z,11.80
2018-06-22T20:57:42.834Z,11.80
2018-06-22T21:00:11.716Z,11.70
2018-06-22T21:02:40.283Z,11.70
2018-06-22T21:05:08.905Z,11.70
2018-06-22T21:07:37.336Z,11.70
2018-06-22T21:10:05.861Z,11.80
2018-06-22T21:12:40.412Z,11.70
2018-06-22T21:15:03.193Z,11.80
2018-06-22T21:17:31.616Z,11.90
2018-06-22T21:20:00.109Z,11.80
2018-06-22T21:22:28.576Z,11.80
2018-06-22T21:24:57.040Z,11.70
2018-06-22T21:27:30.819Z,11.50
2018-06-22T21:30:04.516Z,11.50
2018-06-22T21:32:38.292Z,11.50
2018-06-22T21:35:11.872Z,11.40
2018-06-22T21:37:45.542Z,11.30
2018-06-22T21:40:15.292Z,11.30
2018-06-22T21:42:43.716Z,11.40
2018-06-22T21:45:12.251Z,11.40
2018-06-22T21:47:40.735Z,11.40
2018-06-22T21:50:09.210Z,11.40
2018-06-22T21:52:37.667Z,11.50
2018-06-22T21:55:06.251Z,11.40
2018-06-22T21:57:34.694Z,11.40
2018-06-22T22:00:05.702Z,11.30
2018-06-22T22:02:34.178Z,11.40
2018-06-22T22:05:03.029Z,11.40
2018-06-22T22:07:31.463Z,11.30
2018-06-22T22:09:59.883Z,11.20
2018-06-22T22:12:28.363Z,11.20
2018-06-22T22:14:56.947Z,11.10
2018-06-22T22:17:25.480Z,11.10
2018-06-22T22:19:54.191Z,11.10
2018-06-22T22:22:23.047Z,11.10
2018-06-22T22:24:51.934Z,11.00
2018-06-22T22:27:20.388Z,11.00
2018-06-22T22:29:48.850Z,10.90
2018-06-22T22:32:17.339Z,10.80
2018-06-22T22:34:45.818Z,10.80
2018-06-22T22:37:14.333Z,10.80
2018-06-22T22:39:42.829Z,10.80
2018-06-22T22:42:11.337Z,10.70
2018-06-22T22:44:39.769Z,10.70
2018-06-22T22:47:08.222Z,10.60
2018-06-22T22:49:36.651Z,10.60
2018-06-22T22:52:05.505Z,10.50
2018-06-22T22:54:34.102Z,10.50
2018-06-22T22:57:02.670Z,10.50
2018-06-22T22:59:31.167Z,10.50
2018-06-22T23:01:59.785Z,10.60
2018-06-22T23:04:28.446Z,10.50
2018-06-22T23:06:56.949Z,10.50
2018-06-22T23:09:25.431Z,10.40
2018-06-22T23:11:53.972Z,10.40
2018-06-22T23:14:22.436Z,10.40
2018-06-22T23:16:50.900Z,10.40
2018-06-22T23:19:19.350Z,10.40
2018-06-22T23:21:47.814Z,10.30
2018-06-22T23:24:16.314Z,10.20
2018-06-22T23:26:45.137Z,10.20
2018-06-22T23:29:13.608Z,10.20
2018-06-22T23:31:42.097Z,10.20
2018-06-22T23:34:10.579Z,10.20
2018-06-22T23:36:39.024Z,10.20
2018-06-22T23:39:09.053Z,10.10
2018-06-22T23:41:37.904Z,10.10
2018-06-22T23:44:06.464Z,10.00
2018-06-22T23:46:35.023Z,10.00
2018-06-22T23:49:03.458Z,10.10
2018-06-22T23:51:31.915Z,10.00
2018-06-22T23:54:00.335Z,10.00
2018-06-22T23:56:28.777Z,9.90
2018-06-22T23:58:57.203Z,9.80
